createdAt,value
2019-06-15T00:01:48.873Z,99.90
2019-06-15T00:04:26.873Z,99.90
2019-06-15T00:07:06.732Z,99.90
2019-06-15T00:09:41.961Z,99.90
2019-06-15T00:12:16.188Z,99.90
2019-06-15T00:14:49.225Z,99.90
2019-06-15T00:17:23.279Z,99.90
2019-06-15T00:20:04.553Z,99.90
2019-06-15T00:22:38.970Z,99.90
2019-06-15T00:25:14.311Z,99.90
2019-06-15T00:27:47.811Z,99.90
2019-06-15T00:30:23.993Z,99.90
2019-06-15T00:32:59.620Z,99.90
2019-06-15T00:35:33.840Z,99.90
2019-06-15T00:38:07.647Z,99.90
2019-06-15T00:40:42.666Z,99.90
2019-06-15T00:43:18.024Z,99.90
2019-06-15T00:45:51.683Z,99.90
2019-06-15T00:48:28.082Z,99.90
2019-06-15T00:51:03.228Z,99.90
2019-06-15T00:53:38.151Z,99.90
2019-06-15T00:56:16.373Z,99.90
2019-06-15T00:58:50.587Z,99.90
2019-06-15T01:01:27.048Z,99.90
2019-06-15T01:04:04.228Z,99.90
2019-06-15T01:06:40.286Z,99.90
2019-06-15T01:09:16.156Z,99.90
2019-06-15T01:12:00.205Z,99.90
2019-06-15T01:14:36.559Z,99.90
2019-06-15T01:17:12.402Z,99.90
2019-06-15T01:19:49.192Z,99.90
2019-06-15T01:22:24.656Z,99.90
2019-06-15T01:25:05.492Z,99.90
2019-06-15T01:27:39.397Z,99.90
2019-06-15T01:30:16.274Z,99.90
2019-06-15T01:32:55.099Z,99.90
2019-06-15T01:35:30.660Z,99.90
2019-06-15T01:38:03.939Z,99.90
2019-06-15T01:40:43.801Z,99.90
2019-06-15T01:43:17.999Z,99.90
2019-06-15T01:45:51.814Z,99.90
2019-06-15T01:48:25.102Z,99.90
2019-06-15T01:50:59.214Z,99.90
2019-06-15T01:53:45.046Z,99.90
2019-06-15T01:56:34.709Z,99.90
2019-06-15T01:59:09.819Z,99.90
2019-06-15T02:01:44.140Z,99.90
2019-06-15T02:04:25.371Z,99.90
2019-06-15T02:07:01.387Z,99.90
2019-06-15T02:09:35.596Z,99.90
2019-06-15T02:12:11.547Z,99.90
2019-06-15T02:14:45.505Z,99.90
2019-06-15T02:17:21.509Z,99.90
2019-06-15T02:19:56.021Z,99.90
2019-06-15T02:22:31.680Z,99.90
2019-06-15T02:25:07.703Z,99.90
2019-06-15T02:27:43.176Z,99.90
2019-06-15T02:30:23.035Z,99.90
2019-06-15T02:33:06.553Z,99.90
2019-06-15T02:35:41.690Z,99.90
2019-06-15T02:38:16.314Z,99.90
2019-06-15T02:40:51.562Z,99.90
2019-06-15T02:43:26.184Z,99.90
2019-06-15T02:46:02.357Z,99.90
2019-06-15T02:48:37.376Z,99.90
2019-06-15T02:51:12.159Z,99.90
2019-06-15T02:53:46.020Z,99.90
2019-06-15T02:56:22.064Z,99.90
2019-06-15T02:58:57.624Z,99.90
2019-06-15T03:01:34.338Z,99.90
2019-06-15T03:04:06.143Z,99.90
2019-06-15T03:06:40.473Z,99.90
2019-06-15T03:09:21.126Z,99.90
2019-06-15T03:11:56.892Z,99.90
2019-06-15T03:14:32.978Z,99.90
2019-06-15T03:17:08.393Z,99.90
2019-06-15T03:19:52.192Z,99.90
2019-06-15T03:22:25.614Z,99.90
2019-06-15T03:24:59.831Z,99.90
2019-06-15T03:27:32.773Z,99.90
2019-06-15T03:30:08.467Z,99.90
2019-06-15T03:32:41.962Z,99.90
2019-06-15T03:35:23.348Z,99.90
2019-06-15T03:38:08.844Z,99.90
2019-06-15T03:40:45.853Z,99.90
2019-06-15T03:43:22.273Z,99.90
2019-06-15T03:46:02.231Z,99.90
2019-06-15T03:48:35.926Z,99.90
2019-06-15T03:51:12.192Z,99.90
2019-06-15T03:53:48.665Z,99.90
2019-06-15T03:56:23.385Z,99.90
2019-06-15T03:58:57.190Z,99.90
2019-06-15T04:01:48.505Z,99.90
2019-06-15T04:04:23.236Z,99.90
2019-06-15T04:06:56.524Z,99.90
2019-06-15T04:09:35.651Z,99.90
2019-06-15T04:12:18.675Z,99.90
2019-06-15T04:14:56.066Z,99.90
2019-06-15T04:17:30.460Z,99.90
2019-06-15T04:20:04.984Z,99.90
2019-06-15T04:22:40.862Z,99.90
2019-06-15T04:25:15.799Z,99.90
2019-06-15T04:27:51.135Z,99.90
2019-06-15T04:30:29.036Z,99.90
2019-06-15T04:33:04.748Z,99.90
2019-06-15T04:35:40.743Z,99.90
2019-06-15T04:38:15.575Z,99.90
2019-06-15T04:40:49.686Z,99.90
2019-06-15T04:43:23.487Z,99.90
2019-06-15T04:45:59.545Z,99.90
2019-06-15T04:48:34.785Z,99.90
2019-06-15T04:51:09.107Z,99.90
2019-06-15T04:53:43.115Z,99.90
2019-06-15T04:56:21.325Z,99.90
2019-06-15T04:58:59.327Z,99.90
2019-06-15T05:01:39.278Z,99.90
2019-06-15T05:04:14.104Z,99.90
2019-06-15T05:06:50.160Z,99.90
2019-06-15T05:09:27.049Z,99.90
2019-06-15T05:12:04.123Z,99.90
2019-06-15T05:14:37.926Z,99.90
2019-06-15T05:17:13.474Z,99.90
2019-06-15T05:19:46.972Z,99.90
2019-06-15T05:22:23.546Z,99.90
2019-06-15T05:24:57.764Z,99.90
2019-06-15T05:27:33.513Z,99.90
2019-06-15T05:30:07.521Z,99.90
2019-06-15T05:32:42.553Z,99.90
2019-06-15T05:35:17.279Z,99.90
2019-06-15T05:37:51.239Z,99.90
2019-06-15T05:40:29.294Z,99.90
2019-06-15T05:43:03.415Z,99.90
2019-06-15T05:45:40.697Z,99.90
2019-06-15T05:48:20.338Z,99.90
2019-06-15T05:50:58.829Z,99.90
2019-06-15T05:53:33.993Z,99.90
2019-06-15T05:56:08.938Z,99.90
2019-06-15T05:58:46.212Z,99.90
2019-06-15T06:01:20.322Z,99.90
2019-06-15T06:03:56.284Z,99.90
2019-06-15T06:06:29.568Z,99.90
2019-06-15T06:09:03.079Z,99.90
2019-06-15T06:11:47.829Z,99.90
2019-06-15T06:14:21.738Z,99.90
2019-06-15T06:16:56.453Z,99.90
2019-06-15T06:19:31.294Z,99.90
2019-06-15T06:22:06.123Z,99.90
2019-06-15T06:24:40.238Z,99.90
2019-06-15T06:27:15.270Z,99.90
2019-06-15T06:29:49.895Z,99.90
2019-06-15T06:32:25.343Z,99.90
2019-06-15T06:34:58.633Z,99.90
2019-06-15T06:37:33.153Z,99.90
2019-06-15T06:40:11.312Z,99.90
2019-06-15T06:42:46.401Z,99.90
2019-06-15T06:45:21.225Z,99.90
2019-06-15T06:47:56.053Z,99.90
2019-06-15T06:50:30.270Z,99.90
2019-06-15T06:53:04.385Z,99.90
2019-06-15T06:55:38.089Z,99.90
2019-06-15T06:58:14.880Z,99.90
2019-06-15T07:00:49.079Z,99.90
2019-06-15T07:03:27.694Z,99.90
2019-06-15T07:06:03.139Z,99.90
2019-06-15T07:08:38.193Z,99.90
2019-06-15T07:11:14.845Z,99.90
2019-06-15T07:13:48.856Z,99.90
2019-06-15T07:16:23.788Z,99.90
2019-06-15T07:18:57.611Z,99.90
2019-06-15T07:21:31.605Z,99.90
2019-06-15T07:24:07.866Z,99.90
2019-06-15T07:26:43.986Z,99.90
2019-06-15T07:29:18.038Z,99.90
2019-06-15T07:31:56.354Z,99.90
2019-06-15T07:34:31.179Z,99.90
2019-06-15T07:37:06.412Z,99.90
2019-06-15T07:39:43.089Z,99.90
2019-06-15T07:42:16.690Z,99.90
2019-06-15T07:44:50.606Z,99.90
2019-06-15T07:47:27.164Z,99.90
2019-06-15T07:50:06.656Z,99.90
2019-06-15T07:52:45.308Z,99.90
2019-06-15T07:55:25.051Z,99.90
2019-06-15T07:58:04.723Z,99.90
2019-06-15T08:00:43.851Z,99.90
2019-06-15T08:03:25.846Z,99.90
2019-06-15T08:06:04.839Z,99.90
2019-06-15T08:08:45.788Z,99.90
2019-06-15T08:11:25.189Z,99.90
2019-06-15T08:14:04.111Z,99.90
2019-06-15T08:16:45.393Z,99.90
2019-06-15T08:19:27.370Z,99.90
2019-06-15T08:22:08.761Z,99.90
2019-06-15T08:24:44.824Z,99.90
2019-06-15T08:27:27.117Z,99.90
2019-06-15T08:30:05.604Z,99.90
2019-06-15T08:32:44.877Z,99.90
2019-06-15T08:35:24.527Z,99.90
2019-06-15T08:38:06.102Z,99.90
2019-06-15T08:40:48.282Z,99.90
2019-06-15T08:43:25.598Z,99.90
2019-06-15T08:46:04.497Z,99.90
2019-06-15T08:48:39.141Z,99.90
2019-06-15T08:51:18.656Z,99.90
2019-06-15T08:53:57.693Z,99.90
2019-06-15T08:56:36.020Z,99.90
2019-06-15T08:59:13.959Z,99.90
2019-06-15T09:01:54.961Z,99.90
2019-06-15T09:04:35.063Z,99.50
2019-06-15T09:07:14.427Z,99.90
2019-06-15T09:09:54.852Z,99.70
2019-06-15T09:12:31.457Z,99.90
2019-06-15T09:15:08.196Z,99.50
2019-06-15T09:17:46.818Z,98.30
2019-06-15T09:20:26.464Z,98.90
2019-06-15T09:23:02.839Z,97.90
2019-06-15T09:25:41.064Z,97.00
2019-06-15T09:28:20.286Z,96.60
2019-06-15T09:31:02.031Z,97.50
2019-06-15T09:33:40.891Z,97.10
2019-06-15T09:36:22.503Z,96.50
2019-06-15T09:39:00.481Z,94.40
2019-06-15T09:41:38.896Z,93.00
2019-06-15T09:44:17.805Z,91.10
2019-06-15T09:46:57.251Z,90.40
2019-06-15T09:49:37.117Z,90.20
2019-06-15T09:52:18.827Z,88.50
2019-06-15T09:54:57.850Z,86.80
2019-06-15T09:57:39.789Z,85.00
2019-06-15T10:00:20.909Z,83.90
2019-06-15T10:03:01.641Z,82.40
2019-06-15T10:05:59.652Z,84.40
2019-06-15T10:08:43.663Z,83.10
2019-06-15T10:11:34.370Z,83.10
2019-06-15T10:14:39.731Z,82.50
2019-06-15T10:17:31.049Z,82.80
2019-06-15T10:20:19.257Z,80.20
2019-06-15T10:23:06.335Z,79.50
2019-06-15T10:25:55.904Z,80.00
2019-06-15T10:28:34.285Z,76.70
2019-06-15T10:31:20.409Z,76.70
2019-06-15T10:34:03.862Z,75.20
2019-06-15T10:36:47.938Z,75.30
2019-06-15T10:39:36.109Z,76.80
2019-06-15T10:42:11.582Z,76.90
2019-06-15T10:44:57.587Z,78.10
2019-06-15T10:47:46.541Z,80.70
2019-06-15T10:50:32.831Z,83.80
2019-06-15T10:53:25.829Z,82.90
2019-06-15T10:56:17.797Z,85.70
2019-06-15T10:59:04.448Z,82.00
2019-06-15T11:01:50.093Z,78.10
2019-06-15T11:04:29.979Z,75.70
2019-06-15T11:07:16.943Z,75.70
2019-06-15T11:10:01.713Z,74.80
2019-06-15T11:12:50.908Z,75.20
2019-06-15T11:15:37.119Z,73.30
2019-06-15T11:18:12.076Z,71.00
2019-06-15T11:21:00.904Z,70.30
2019-06-15T11:23:49.027Z,65.80
2019-06-15T11:26:41.704Z,69.10
2019-06-15T11:29:32.940Z,66.30
2019-06-15T11:32:31.823Z,64.40
2019-06-15T11:35:17.166Z,63.90
2019-06-15T11:37:53.059Z,61.40
2019-06-15T11:40:44.073Z,60.80
2019-06-15T11:43:31.692Z,59.90
2019-06-15T11:46:18.990Z,62.00
2019-06-15T11:49:06.867Z,59.60
2019-06-15T11:51:56.689Z,59.70
2019-06-15T11:54:44.892Z,58.20
2019-06-15T11:57:38.652Z,60.40
2019-06-15T12:00:31.629Z,59.70
2019-06-15T12:03:16.273Z,58.10
2019-06-15T12:06:03.600Z,59.60
2019-06-15T12:08:52.141Z,60.00
2019-06-15T12:11:41.643Z,58.40
2019-06-15T12:14:32.511Z,59.00
2019-06-15T12:17:19.350Z,58.50
2019-06-15T12:20:18.633Z,59.10
2019-06-15T12:23:15.147Z,58.20
2019-06-15T12:26:03.248Z,58.50
2019-06-15T12:29:07.733Z,58.40
2019-06-15T12:31:53.929Z,59.20
2019-06-15T12:34:42.447Z,59.60
2019-06-15T12:37:33.000Z,59.00
2019-06-15T12:40:23.339Z,60.90
2019-06-15T12:43:11.586Z,59.70
2019-06-15T12:46:06.783Z,60.40
2019-06-15T12:48:59.251Z,60.80
2019-06-15T12:51:53.992Z,61.50
2019-06-15T12:54:50.309Z,61.10
2019-06-15T12:57:25.023Z,60.10
2019-06-15T13:00:14.414Z,59.10
2019-06-15T13:03:06.920Z,59.80
2019-06-15T13:05:58.370Z,60.70
2019-06-15T13:08:49.450Z,60.20
2019-06-15T13:11:41.652Z,61.10
2019-06-15T13:14:30.678Z,60.80
2019-06-15T13:17:24.758Z,59.90
2019-06-15T13:20:04.808Z,59.80
2019-06-15T13:22:55.371Z,58.60
2019-06-15T13:25:53.409Z,58.70
2019-06-15T13:28:51.128Z,58.10
2019-06-15T13:31:40.987Z,61.20
2019-06-15T13:34:29.607Z,58.80
2019-06-15T13:37:24.891Z,59.00
2019-06-15T13:40:19.405Z,60.00
2019-06-15T13:43:11.727Z,60.50
2019-06-15T13:46:04.072Z,61.40
2019-06-15T13:48:52.703Z,60.10
2019-06-15T13:51:42.718Z,60.70
2019-06-15T13:54:33.907Z,60.00
2019-06-15T13:57:23.675Z,61.70
2019-06-15T14:00:14.747Z,61.80
2019-06-15T14:02:56.567Z,62.10
2019-06-15T14:05:34.118Z,60.60
2019-06-15T14:08:11.222Z,60.90
2019-06-15T14:10:58.685Z,62.90
2019-06-15T14:13:43.211Z,63.50
2019-06-15T14:16:20.321Z,64.40
2019-06-15T14:19:04.066Z,65.60
2019-06-15T14:21:53.574Z,67.60
2019-06-15T14:24:40.211Z,67.40
2019-06-15T14:27:25.017Z,67.30
2019-06-15T14:30:17.378Z,67.30
2019-06-15T14:33:08.020Z,68.20
2019-06-15T14:36:06.260Z,68.50
2019-06-15T14:39:04.653Z,69.20
2019-06-15T14:41:55.828Z,69.90
2019-06-15T14:44:48.030Z,71.80
2019-06-15T14:47:40.595Z,73.10
2019-06-15T14:50:30.996Z,73.90
2019-06-15T14:53:29.315Z,75.60
2019-06-15T14:56:25.487Z,75.70
2019-06-15T14:59:19.775Z,77.30
2019-06-15T15:02:09.179Z,78.30
2019-06-15T15:04:47.939Z,80.50
2019-06-15T15:07:38.938Z,81.00
2019-06-15T15:10:26.728Z,81.00
2019-06-15T15:13:16.298Z,81.00
2019-06-15T15:16:08.145Z,81.10
2019-06-15T15:19:01.895Z,82.90
2019-06-15T15:21:58.484Z,83.10
2019-06-15T15:24:45.376Z,84.80
2019-06-15T15:27:31.388Z,86.10
2019-06-15T15:30:19.364Z,86.70
2019-06-15T15:33:03.092Z,87.30
2019-06-15T15:36:00.193Z,86.70
2019-06-15T15:38:52.635Z,87.10
2019-06-15T15:41:42.138Z,87.10
2019-06-15T15:44:31.238Z,87.90
2019-06-15T15:47:19.096Z,88.50
2019-06-15T15:50:00.567Z,89.30
2019-06-15T15:52:42.869Z,90.50
2019-06-15T15:55:37.992Z,90.40
2019-06-15T15:58:28.529Z,90.70
2019-06-15T16:01:19.384Z,90.40
2019-06-15T16:04:09.950Z,87.00
2019-06-15T16:07:08.779Z,88.40
2019-06-15T16:09:57.617Z,89.00
2019-06-15T16:12:52.596Z,85.20
2019-06-15T16:15:26.491Z,84.70
2019-06-15T16:18:27.309Z,83.00
2019-06-15T16:21:26.087Z,88.40
2019-06-15T16:24:27.358Z,95.80
2019-06-15T16:27:22.276Z,99.90
2019-06-15T16:30:32.839Z,99.90
2019-06-15T16:33:16.025Z,99.90
2019-06-15T16:36:21.791Z,99.90
2019-06-15T16:39:11.137Z,99.90
2019-06-15T16:41:59.084Z,99.90
2019-06-15T16:44:43.164Z,99.90
2019-06-15T16:47:27.417Z,99.90
2019-06-15T16:50:09.473Z,99.90
2019-06-15T16:52:51.546Z,99.90
2019-06-15T16:55:36.908Z,99.90
2019-06-15T16:58:36.173Z,99.90
2019-06-15T17:01:21.202Z,99.90
2019-06-15T17:04:06.834Z,99.90
2019-06-15T17:06:50.469Z,99.90
2019-06-15T17:09:36.189Z,99.90
2019-06-15T17:12:16.952Z,99.90
2019-06-15T17:14:56.786Z,99.90
2019-06-15T17:17:38.654Z,99.90
2019-06-15T17:20:20.887Z,99.90
2019-06-15T17:23:03.240Z,99.90
2019-06-15T17:25:42.878Z,99.90
2019-06-15T17:28:26.455Z,99.90
2019-06-15T17:31:07.879Z,99.90
2019-06-15T17:33:51.913Z,99.90
2019-06-15T17:36:32.619Z,99.90
2019-06-15T17:39:13.782Z,99.90
2019-06-15T17:42:06.896Z,99.90
2019-06-15T17:44:57.844Z,99.90
2019-06-15T17:48:01.808Z,99.90
2019-06-15T17:50:57.263Z,99.90
2019-06-15T17:53:38.988Z,99.90
2019-06-15T17:56:27.217Z,99.90
2019-06-15T17:59:36.457Z,99.90
2019-06-15T18:02:44.030Z,99.90
2019-06-15T18:05:37.803Z,99.90
2019-06-15T18:08:29.239Z,99.90
2019-06-15T18:11:07.260Z,99.90
2019-06-15T18:14:12.887Z,99.90
2019-06-15T18:17:17.025Z,99.90
2019-06-15T18:20:16.121Z,99.90
2019-06-15T18:22:53.058Z,99.90
2019-06-15T18:26:04.064Z,99.90
2019-06-15T18:29:03.683Z,99.90
2019-06-15T18:31:57.995Z,99.90
2019-06-15T18:35:06.012Z,99.90
2019-06-15T18:38:13.287Z,99.90
2019-06-15T18:41:16.917Z,99.90
2019-06-15T18:44:15.903Z,99.90
2019-06-15T18:47:16.498Z,99.90
2019-06-15T18:50:26.528Z,99.90
2019-06-15T18:53:20.764Z,99.90
2019-06-15T18:56:18.310Z,99.90
2019-06-15T18:59:16.786Z,99.90
2019-06-15T19:02:19.958Z,99.90
2019-06-15T19:05:17.688Z,99.90
2019-06-15T19:08:27.394Z,99.90
2019-06-15T19:11:21.574Z,99.90
2019-06-15T19:14:07.114Z,99.90
2019-06-15T19:16:58.373Z,99.90
2019-06-15T19:19:57.121Z,99.90
2019-06-15T19:22:55.953Z,99.90
2019-06-15T19:25:41.529Z,99.90
2019-06-15T19:28:45.807Z,99.90
2019-06-15T19:31:37.124Z,99.90
2019-06-15T19:34:46.408Z,99.90
2019-06-15T19:37:36.959Z,99.90
2019-06-15T19:40:37.594Z,99.90
2019-06-15T19:43:46.621Z,99.90
2019-06-15T19:46:33.314Z,99.90
2019-06-15T19:49:33.352Z,99.90
2019-06-15T19:52:25.764Z,99.90
2019-06-15T19:55:12.339Z,99.90
2019-06-15T19:58:07.238Z,99.90
2019-06-15T20:01:06.620Z,99.90
2019-06-15T20:03:57.528Z,99.90
2019-06-15T20:06:58.214Z,99.90
2019-06-15T20:09:57.409Z,99.90
2019-06-15T20:12:56.106Z,99.90
2019-06-15T20:15:54.224Z,99.90
2019-06-15T20:18:49.281Z,99.90
2019-06-15T20:21:39.379Z,99.90
2019-06-15T20:24:36.482Z,99.90
2019-06-15T20:27:27.756Z,99.90
2019-06-15T20:30:29.524Z,99.90
2019-06-15T20:33:18.570Z,99.90
2019-06-15T20:36:10.283Z,99.90
2019-06-15T20:38:46.911Z,99.90
2019-06-15T20:41:41.062Z,99.90
2019-06-15T20:44:30.289Z,99.90
2019-06-15T20:47:19.939Z,99.90
2019-06-15T20:50:06.642Z,99.90
2019-06-15T20:53:10.809Z,99.90
2019-06-15T20:55:46.435Z,99.90
2019-06-15T20:58:37.569Z,99.90
2019-06-15T21:01:36.663Z,99.90
2019-06-15T21:04:26.559Z,99.90
2019-06-15T21:07:27.148Z,99.90
2019-06-15T21:10:20.557Z,99.90
2019-06-15T21:13:16.753Z,99.90
2019-06-15T21:16:06.513Z,99.90
2019-06-15T21:18:59.413Z,99.90
2019-06-15T21:21:56.556Z,99.90
2019-06-15T21:24:39.709Z,99.90
2019-06-15T21:27:26.216Z,99.90
2019-06-15T21:30:18.719Z,99.90
2019-06-15T21:33:07.100Z,99.90
2019-06-15T21:36:02.606Z,99.90
2019-06-15T21:38:59.067Z,99.90
2019-06-15T21:41:56.745Z,99.90
2019-06-15T21:44:51.620Z,99.90
2019-06-15T21:47:52.272Z,99.90
2019-06-15T21:50:56.854Z,99.90
2019-06-15T21:53:55.912Z,99.90
2019-06-15T21:56:43.857Z,99.90
2019-06-15T21:59:43.016Z,99.90
2019-06-15T22:02:36.259Z,99.90
2019-06-15T22:05:38.571Z,99.90
2019-06-15T22:08:31.278Z,99.90
2019-06-15T22:11:36.147Z,99.90
2019-06-15T22:14:32.662Z,99.90
2019-06-15T22:17:27.485Z,99.90
2019-06-15T22:20:26.294Z,99.90
2019-06-15T22:23:16.264Z,99.90
2019-06-15T22:26:17.784Z,99.90
2019-06-15T22:29:12.520Z,99.90
2019-06-15T22:32:16.455Z,99.90
2019-06-15T22:34:59.778Z,99.90
2019-06-15T22:37:57.563Z,99.90
2019-06-15T22:40:50.224Z,99.90
2019-06-15T22:43:49.532Z,99.90
2019-06-15T22:46:43.036Z,99.90
2019-06-15T22:49:35.944Z,99.90
2019-06-15T22:52:23.744Z,99.90
2019-06-15T22:55:16.531Z,99.90
2019-06-15T22:58:06.288Z,99.90
2019-06-15T23:00:56.657Z,99.90
2019-06-15T23:03:46.317Z,99.90
2019-06-15T23:06:40.706Z,99.90
2019-06-15T23:09:25.237Z,99.90
2019-06-15T23:12:15.488Z,99.90
2019-06-15T23:15:03.833Z,99.90
2019-06-15T23:17:49.691Z,99.90
2019-06-15T23:20:36.746Z,99.90
2019-06-15T23:23:23.704Z,99.90
2019-06-15T23:26:10.413Z,99.90
2019-06-15T23:28:59.742Z,99.90
2019-06-15T23:31:48.124Z,99.90
2019-06-15T23:34:38.245Z,99.90
2019-06-15T23:37:26.630Z,99.90
2019-06-15T23:40:32.973Z,99.90
2019-06-15T23:43:26.932Z,99.90
2019-06-15T23:46:21.680Z,99.90
2019-06-15T23:49:16.371Z,99.90
2019-06-15T23:52:10.437Z,99.90
2019-06-15T23:55:03.091Z,99.90
2019-06-15T23:57:57.030Z,99.90
